sensor_id;sensor_type;location;lat;lon;timestamp;pressure;altitude;pressure_sealevel;temperature;humidity
56518;BME280;42419;48.760;2.322;2023-08-07T00:00:22;101272.22;;;21.98;43.45
56518;BME280;42419;48.760;2.322;2023-08-07T00:02:47;101281.94;;;22.00;42.90
56518;BME280;42419;48.760;2.322;2023-08-07T00:05:13;101271.56;;;21.91;43.21
56518;BME280;42419;48.760;2.322;2023-08-07T00:07:38;101271.53;;;21.92;42.73
56518;BME280;42419;48.760;2.322;2023-08-07T00:10:04;101285.63;;;21.98;43.17
56518;BME280;42419;48.760;2.322;2023-08-07T00:12:29;101227.84;;;21.66;43.12
56518;BME280;42419;48.760;2.322;2023-08-07T00:14:55;101282.91;;;21.99;43.00
56518;BME280;42419;48.760;2.322;2023-08-07T00:17:20;101290.09;;;21.97;43.14
56518;BME280;42419;48.760;2.322;2023-08-07T00:19:45;101269.75;;;21.91;42.95
56518;BME280;42419;48.760;2.322;2023-08-07T00:22:11;101286.50;;;21.98;43.06
56518;BME280;42419;48.760;2.322;2023-08-07T00:24:36;101266.38;;;21.86;42.89
56518;BME280;42419;48.760;2.322;2023-08-07T00:27:01;101277.88;;;21.90;42.80
56518;BME280;42419;48.760;2.322;2023-08-07T00:29:27;101285.81;;;21.93;42.72
56518;BME280;42419;48.760;2.322;2023-08-07T00:31:52;101287.47;;;21.95;42.76
56518;BME280;42419;48.760;2.322;2023-08-07T00:34:17;101280.50;;;21.91;42.67
56518;BME280;42419;48.760;2.322;2023-08-07T00:36:43;101272.56;;;21.88;42.52
56518;BME280;42419;48.760;2.322;2023-08-07T00:39:08;101280.44;;;21.93;42.56
56518;BME280;42419;48.760;2.322;2023-08-07T00:41:33;101285.84;;;21.91;42.87
56518;BME280;42419;48.760;2.322;2023-08-07T00:43:59;101283.06;;;21.94;42.60
56518;BME280;42419;48.760;2.322;2023-08-07T00:46:24;101277.09;;;21.86;42.76
56518;BME280;42419;48.760;2.322;2023-08-07T00:48:51;101276.88;;;21.92;42.34
56518;BME280;42419;48.760;2.322;2023-08-07T00:51:17;101281.38;;;21.92;42.43
56518;BME280;42419;48.760;2.322;2023-08-07T00:53:43;101263.75;;;21.85;42.95
56518;BME280;42419;48.760;2.322;2023-08-07T00:56:08;101275.25;;;21.88;42.76
56518;BME280;42419;48.760;2.322;2023-08-07T00:58:34;101279.63;;;21.91;42.55
56518;BME280;42419;48.760;2.322;2023-08-07T01:00:59;101280.56;;;21.90;42.81
56518;BME280;42419;48.760;2.322;2023-08-07T01:03:25;101268.22;;;21.84;42.74
56518;BME280;42419;48.760;2.322;2023-08-07T01:05:50;101276.19;;;21.87;42.48
56518;BME280;42419;48.760;2.322;2023-08-07T01:08:16;101257.63;;;21.81;42.41
56518;BME280;42419;48.760;2.322;2023-08-07T01:10:48;101270.81;;;21.87;42.57
56518;BME280;42419;48.760;2.322;2023-08-07T01:13:23;101274.38;;;21.88;42.41
56518;BME280;42419;48.760;2.322;2023-08-07T01:15:52;101260.38;;;21.80;42.55
56518;BME280;42419;48.760;2.322;2023-08-07T01:18:20;101273.50;;;21.87;42.46
56518;BME280;42419;48.760;2.322;2023-08-07T01:20:46;101223.69;;;21.59;42.58
56518;BME280;42419;48.760;2.322;2023-08-07T01:23:11;101269.94;;;21.87;42.64
56518;BME280;42419;48.760;2.322;2023-08-07T01:25:36;101264.63;;;21.85;42.49
56518;BME280;42419;48.760;2.322;2023-08-07T01:28:12;101265.69;;;21.81;42.24
56518;BME280;42419;48.760;2.322;2023-08-07T01:30:46;101263.00;;;21.81;42.37
56518;BME280;42419;48.760;2.322;2023-08-07T01:33:32;101268.22;;;21.84;42.31
56518;BME280;42419;48.760;2.322;2023-08-07T01:36:02;101267.41;;;21.82;42.41
56518;BME280;42419;48.760;2.322;2023-08-07T01:38:30;101260.25;;;21.83;42.37
56518;BME280;42419;48.760;2.322;2023-08-07T01:40:57;101250.75;;;21.74;42.44
56518;BME280;42419;48.760;2.322;2023-08-07T01:43:23;101256.94;;;21.76;42.39
56518;BME280;42419;48.760;2.322;2023-08-07T01:45:49;101257.13;;;21.72;42.51
56518;BME280;42419;48.760;2.322;2023-08-07T01:48:14;101269.28;;;21.80;42.35
56518;BME280;42419;48.760;2.322;2023-08-07T01:50:39;101257.03;;;21.73;42.46
56518;BME280;42419;48.760;2.322;2023-08-07T01:53:07;101258.03;;;21.71;42.24
56518;BME280;42419;48.760;2.322;2023-08-07T01:55:33;101268.47;;;21.78;42.54
56518;BME280;42419;48.760;2.322;2023-08-07T01:57:58;101271.25;;;21.75;42.50
56518;BME280;42419;48.760;2.322;2023-08-07T02:00:23;101278.38;;;21.76;42.51
56518;BME280;42419;48.760;2.322;2023-08-07T02:02:49;101278.38;;;21.76;42.20
56518;BME280;42419;48.760;2.322;2023-08-07T02:05:14;101281.09;;;21.75;42.63
56518;BME280;42419;48.760;2.322;2023-08-07T02:07:40;101278.44;;;21.75;42.42
56518;BME280;42419;48.760;2.322;2023-08-07T02:10:06;101261.72;;;21.68;42.54
56518;BME280;42419;48.760;2.322;2023-08-07T02:12:31;101274.00;;;21.74;42.40
56518;BME280;42419;48.760;2.322;2023-08-07T02:15:00;101265.16;;;21.72;42.62
56518;BME280;42419;48.760;2.322;2023-08-07T02:17:27;101263.44;;;21.69;42.44
56518;BME280;42419;48.760;2.322;2023-08-07T02:19:52;101264.16;;;21.74;42.29
56518;BME280;42419;48.760;2.322;2023-08-07T02:22:18;101259.78;;;21.72;42.51
56518;BME280;42419;48.760;2.322;2023-08-07T02:24:43;101259.97;;;21.67;42.49
56518;BME280;42419;48.760;2.322;2023-08-07T02:27:09;101269.47;;;21.76;42.81
56518;BME280;42419;48.760;2.322;2023-08-07T02:29:34;101217.91;;;21.46;42.72
56518;BME280;42419;48.760;2.322;2023-08-07T02:32:03;101272.19;;;21.74;42.43
56518;BME280;42419;48.760;2.322;2023-08-07T02:34:29;101268.59;;;21.75;42.59
56518;BME280;42419;48.760;2.322;2023-08-07T02:36:54;101260.72;;;21.71;42.36
56518;BME280;42419;48.760;2.322;2023-08-07T02:39:20;101270.44;;;21.73;42.59
56518;BME280;42419;48.760;2.322;2023-08-07T02:41:45;101265.16;;;21.72;42.45
56518;BME280;42419;48.760;2.322;2023-08-07T02:44:11;101272.28;;;21.73;42.30
56518;BME280;42419;48.760;2.322;2023-08-07T02:46:36;101266.03;;;21.72;42.69
56518;BME280;42419;48.760;2.322;2023-08-07T02:49:02;101266.03;;;21.72;42.61
56518;BME280;42419;48.760;2.322;2023-08-07T02:51:27;101266.06;;;21.71;42.59
56518;BME280;42419;48.760;2.322;2023-08-07T02:53:52;101257.34;;;21.66;42.28
56518;BME280;42419;48.760;2.322;2023-08-07T02:56:17;101269.69;;;21.70;42.72
56518;BME280;42419;48.760;2.322;2023-08-07T02:58:43;101274.13;;;21.71;42.58
56518;BME280;42419;48.760;2.322;2023-08-07T03:01:08;101268.81;;;21.69;42.68
56518;BME280;42419;48.760;2.322;2023-08-07T03:03:34;101269.69;;;21.70;42.89
56518;BME280;42419;48.760;2.322;2023-08-07T03:05:59;101262.75;;;21.64;42.67
56518;BME280;42419;48.760;2.322;2023-08-07T03:08:24;101250.50;;;21.57;42.50
56518;BME280;42419;48.760;2.322;2023-08-07T03:10:52;101261.91;;;21.64;42.45
56518;BME280;42419;48.760;2.322;2023-08-07T03:13:18;101271.56;;;21.68;42.75
56518;BME280;42419;48.760;2.322;2023-08-07T03:15:43;101276.91;;;21.68;42.85
56518;BME280;42419;48.760;2.322;2023-08-07T03:18:08;101269.09;;;21.62;42.87
56518;BME280;42419;48.760;2.322;2023-08-07T03:20:36;101274.34;;;21.65;42.92
56518;BME280;42419;48.760;2.322;2023-08-07T03:23:01;101280.53;;;21.67;42.74
56518;BME280;42419;48.760;2.322;2023-08-07T03:25:27;101277.91;;;21.65;42.96
56518;BME280;42419;48.760;2.322;2023-08-07T03:27:52;101282.31;;;21.66;42.88
56518;BME280;42419;48.760;2.322;2023-08-07T03:30:17;101273.00;;;21.53;42.77
56518;BME280;42419;48.760;2.322;2023-08-07T03:32:43;101287.69;;;21.66;42.79
56518;BME280;42419;48.760;2.322;2023-08-07T03:35:08;101282.63;;;21.59;43.10
56518;BME280;42419;48.760;2.322;2023-08-07T03:37:33;101289.53;;;21.64;42.86
56518;BME280;42419;48.760;2.322;2023-08-07T03:39:58;101271.16;;;21.55;42.74
56518;BME280;42419;48.760;2.322;2023-08-07T03:42:24;101282.72;;;21.56;43.15
56518;BME280;42419;48.760;2.322;2023-08-07T03:44:49;101289.63;;;21.63;42.83
56518;BME280;42419;48.760;2.322;2023-08-07T03:47:14;101288.75;;;21.62;42.71
56518;BME280;42419;48.760;2.322;2023-08-07T03:49:40;101230.19;;;21.28;42.63
56518;BME280;42419;48.760;2.322;2023-08-07T03:52:05;101283.50;;;21.59;43.08
56518;BME280;42419;48.760;2.322;2023-08-07T03:54:30;101288.88;;;21.59;42.94
56518;BME280;42419;48.760;2.322;2023-08-07T03:56:56;101292.47;;;21.58;42.52
56518;BME280;42419;48.760;2.322;2023-08-07T03:59:21;101273.13;;;21.50;42.63
56518;BME280;42419;48.760;2.322;2023-08-07T04:01:47;101280.88;;;21.58;43.13
56518;BME280;42419;48.760;2.322;2023-08-07T04:04:12;101285.34;;;21.57;43.28
56518;BME280;42419;48.760;2.322;2023-08-07T04:06:37;101289.91;;;21.55;42.94
56518;BME280;42419;48.760;2.322;2023-08-07T04:09:03;101267.97;;;21.44;43.04
56518;BME280;42419;48.760;2.322;2023-08-07T04:11:28;101268.84;;;21.44;42.98
56518;BME280;42419;48.760;2.322;2023-08-07T04:13:54;101261.13;;;21.37;42.90
56518;BME280;42419;48.760;2.322;2023-08-07T04:16:19;101276.94;;;21.43;43.12
56518;BME280;42419;48.760;2.322;2023-08-07T04:18:45;101293.50;;;21.54;42.83
56518;BME280;42419;48.760;2.322;2023-08-07T04:21:10;101306.03;;;21.53;43.10
56518;BME280;42419;48.760;2.322;2023-08-07T04:23:35;101299.78;;;21.53;42.94
56518;BME280;42419;48.760;2.322;2023-08-07T04:26:01;101304.28;;;21.52;43.03
56518;BME280;42419;48.760;2.322;2023-08-07T04:28:30;101293.59;;;21.51;43.10
56518;BME280;42419;48.760;2.322;2023-08-07T04:30:55;101276.13;;;21.41;43.10
56518;BME280;42419;48.760;2.322;2023-08-07T04:33:20;101270.78;;;21.41;43.02
56518;BME280;42419;48.760;2.322;2023-08-07T04:35:46;101295.44;;;21.50;43.09
56518;BME280;42419;48.760;2.322;2023-08-07T04:38:13;101285.81;;;21.45;42.98
56518;BME280;42419;48.760;2.322;2023-08-07T04:40:44;101245.75;;;21.17;42.90
56518;BME280;42419;48.760;2.322;2023-08-07T04:43:09;101231.56;;;21.14;43.06
56518;BME280;42419;48.760;2.322;2023-08-07T04:45:35;101271.81;;;21.37;42.98
56518;BME280;42419;48.760;2.322;2023-08-07T04:48:03;101296.38;;;21.49;42.88
56518;BME280;42419;48.760;2.322;2023-08-07T04:50:29;101298.13;;;21.50;43.13
56518;BME280;42419;48.760;2.322;2023-08-07T04:52:54;101293.72;;;21.48;43.12
56518;BME280;42419;48.760;2.322;2023-08-07T04:55:20;101268.44;;;21.32;43.19
56518;BME280;42419;48.760;2.322;2023-08-07T04:57:45;101306.19;;;21.49;43.03
56518;BME280;42419;48.760;2.322;2023-08-07T05:00:12;101294.78;;;21.44;43.07
56518;BME280;42419;48.760;2.322;2023-08-07T05:02:37;101309.81;;;21.48;43.08
56518;BME280;42419;48.760;2.322;2023-08-07T05:05:02;101276.50;;;21.30;43.08
56518;BME280;42419;48.760;2.322;2023-08-07T05:07:28;101312.59;;;21.45;42.83
56518;BME280;42419;48.760;2.322;2023-08-07T05:09:53;101301.28;;;21.37;43.34
56518;BME280;42419;48.760;2.322;2023-08-07T05:12:18;101300.25;;;21.41;43.21
56518;BME280;42419;48.760;2.322;2023-08-07T05:14:44;101311.72;;;21.44;43.46
56518;BME280;42419;48.760;2.322;2023-08-07T05:17:09;101313.53;;;21.44;43.33
56518;BME280;42419;48.760;2.322;2023-08-07T05:19:34;101309.81;;;21.48;43.37
56518;BME280;42419;48.760;2.322;2023-08-07T05:21:59;101298.63;;;21.37;43.31
56518;BME280;42419;48.760;2.322;2023-08-07T05:24:25;101315.16;;;21.48;43.43
56518;BME280;42419;48.760;2.322;2023-08-07T05:26:50;101317.78;;;21.49;43.40
56518;BME280;42419;48.760;2.322;2023-08-07T05:29:15;101289.69;;;21.36;43.46
56518;BME280;42419;48.760;2.322;2023-08-07T05:31:41;101304.59;;;21.43;43.75
56518;BME280;42419;48.760;2.322;2023-08-07T05:34:06;101323.88;;;21.55;43.52
56518;BME280;42419;48.760;2.322;2023-08-07T05:36:31;101327.34;;;21.57;43.66
56518;BME280;42419;48.760;2.322;2023-08-07T05:38:58;101325.50;;;21.59;43.86
56518;BME280;42419;48.760;2.322;2023-08-07T05:41:23;101325.53;;;21.57;43.61
56518;BME280;42419;48.760;2.322;2023-08-07T05:43:49;101331.66;;;21.61;43.85
56518;BME280;42419;48.760;2.322;2023-08-07T05:46:14;101332.50;;;21.63;43.84
56518;BME280;42419;48.760;2.322;2023-08-07T05:48:39;101327.34;;;21.57;43.69
56518;BME280;42419;48.760;2.322;2023-08-07T05:51:07;101300.16;;;21.42;43.79
56518;BME280;42419;48.760;2.322;2023-08-07T05:53:32;101343.13;;;21.64;43.74
56518;BME280;42419;48.760;2.322;2023-08-07T05:55:57;101334.50;;;21.56;44.26
56518;BME280;42419;48.760;2.322;2023-08-07T05:58:23;101336.81;;;21.67;44.05
56518;BME280;42419;48.760;2.322;2023-08-07T06:00:48;101336.75;;;21.68;44.21
56518;BME280;42419;48.760;2.322;2023-08-07T06:03:13;101334.19;;;21.65;43.95
56518;BME280;42419;48.760;2.322;2023-08-07T06:05:39;101329.56;;;21.69;44.35
56518;BME280;42419;48.760;2.322;2023-08-07T06:08:04;101334.94;;;21.69;44.29
56518;BME280;42419;48.760;2.322;2023-08-07T06:10:30;101337.44;;;21.73;44.36
56518;BME280;42419;48.760;2.322;2023-08-07T06:12:55;101338.28;;;21.75;44.34
56518;BME280;42419;48.760;2.322;2023-08-07T06:15:20;101337.34;;;21.76;44.34
56518;BME280;42419;48.760;2.322;2023-08-07T06:17:46;101333.78;;;21.76;44.55
56518;BME280;42419;48.760;2.322;2023-08-07T06:20:11;101342.63;;;21.78;44.30
56518;BME280;42419;48.760;2.322;2023-08-07T06:22:39;101325.97;;;21.70;44.54
56518;BME280;42419;48.760;2.322;2023-08-07T06:25:08;101333.13;;;21.69;44.39
56518;BME280;42419;48.760;2.322;2023-08-07T06:27:34;101331.28;;;21.71;44.42
56518;BME280;42419;48.760;2.322;2023-08-07T06:29:59;101348.78;;;21.81;44.19
56518;BME280;42419;48.760;2.322;2023-08-07T06:32:25;101360.31;;;21.83;44.37
56518;BME280;42419;48.760;2.322;2023-08-07T06:34:50;101354.00;;;21.84;44.43
56518;BME280;42419;48.760;2.322;2023-08-07T06:37:16;101361.13;;;21.85;44.30
56518;BME280;42419;48.760;2.322;2023-08-07T06:39:41;101362.91;;;21.86;44.12
56518;BME280;42419;48.760;2.322;2023-08-07T06:42:07;101342.75;;;21.75;44.41
56518;BME280;42419;48.760;2.322;2023-08-07T06:44:32;101361.22;;;21.82;44.31
56518;BME280;42419;48.760;2.322;2023-08-07T06:46:57;101361.00;;;21.90;44.32
56518;BME280;42419;48.760;2.322;2023-08-07T06:49:23;101357.56;;;21.85;43.96
56518;BME280;42419;48.760;2.322;2023-08-07T06:51:48;101367.16;;;21.92;43.95
56518;BME280;42419;48.760;2.322;2023-08-07T06:54:14;101362.97;;;21.83;44.16
56518;BME280;42419;48.760;2.322;2023-08-07T06:56:39;101382.38;;;21.91;44.34
56518;BME280;42419;48.760;2.322;2023-08-07T06:59:07;101386.75;;;21.94;44.26
56518;BME280;42419;48.760;2.322;2023-08-07T07:01:32;101378.63;;;21.95;44.33
56518;BME280;42419;48.760;2.322;2023-08-07T07:03:57;101369.22;;;21.84;44.05
56518;BME280;42419;48.760;2.322;2023-08-07T07:06:23;101400.09;;;21.95;44.21
56518;BME280;42419;48.760;2.322;2023-08-07T07:08:50;101391.38;;;21.90;44.38
56518;BME280;42419;48.760;2.322;2023-08-07T07:11:19;101406.34;;;21.96;44.37
56518;BME280;42419;48.760;2.322;2023-08-07T07:13:44;101385.16;;;21.88;44.42
56518;BME280;42419;48.760;2.322;2023-08-07T07:16:10;101397.38;;;21.97;44.26
56518;BME280;42419;48.760;2.322;2023-08-07T07:18:36;101403.56;;;21.99;44.08
56518;BME280;42419;48.760;2.322;2023-08-07T07:21:02;101388.56;;;21.93;44.06
56518;BME280;42419;48.760;2.322;2023-08-07T07:23:27;101404.28;;;22.04;44.38
56518;BME280;42419;48.760;2.322;2023-08-07T07:25:53;101405.06;;;22.06;43.97
56518;BME280;42419;48.760;2.322;2023-08-07T07:28:18;101401.50;;;22.06;44.13
56518;BME280;42419;48.760;2.322;2023-08-07T07:30:44;101408.47;;;22.11;44.04
56518;BME280;42419;48.760;2.322;2023-08-07T07:33:09;101382.09;;;21.99;44.33
56518;BME280;42419;48.760;2.322;2023-08-07T07:35:38;101410.97;;;22.16;44.03
56518;BME280;42419;48.760;2.322;2023-08-07T07:38:04;101394.03;;;22.14;44.07
56518;BME280;42419;48.760;2.322;2023-08-07T07:40:29;101412.44;;;22.24;44.17
56518;BME280;42419;48.760;2.322;2023-08-07T07:42:54;101405.22;;;22.26;43.90
56518;BME280;42419;48.760;2.322;2023-08-07T07:45:20;101380.41;;;22.20;43.89
56518;BME280;42419;48.760;2.322;2023-08-07T07:47:45;101408.50;;;22.33;43.92
56518;BME280;42419;48.760;2.322;2023-08-07T07:50:11;101404.78;;;22.37;43.93
56518;BME280;42419;48.760;2.322;2023-08-07T07:52:38;101406.53;;;22.38;43.80
56518;BME280;42419;48.760;2.322;2023-08-07T07:55:03;101414.28;;;22.46;43.40
56518;BME280;42419;48.760;2.322;2023-08-07T07:57:28;101388.06;;;22.30;44.05
56518;BME280;42419;48.760;2.322;2023-08-07T07:59:54;101368.75;;;22.21;43.77
56518;BME280;42419;48.760;2.322;2023-08-07T08:02:20;101425.75;;;22.49;43.80
56518;BME280;42419;48.760;2.322;2023-08-07T08:04:46;101429.19;;;22.54;43.72
56518;BME280;42419;48.760;2.322;2023-08-07T08:07:13;101427.44;;;22.53;43.40
56518;BME280;42419;48.760;2.322;2023-08-07T08:09:38;101432.66;;;22.58;43.82
56518;BME280;42419;48.760;2.322;2023-08-07T08:12:04;101422.75;;;22.58;43.78
56518;BME280;42419;48.760;2.322;2023-08-07T08:14:29;101437.00;;;22.60;43.75
56518;BME280;42419;48.760;2.322;2023-08-07T08:16:55;101433.41;;;22.61;43.63
56518;BME280;42419;48.760;2.322;2023-08-07T08:19:20;101435.16;;;22.62;43.49
56518;BME280;42419;48.760;2.322;2023-08-07T08:21:45;101428.91;;;22.62;43.68
56518;BME280;42419;48.760;2.322;2023-08-07T08:24:11;101427.72;;;22.69;43.50
56518;BME280;42419;48.760;2.322;2023-08-07T08:26:36;101433.91;;;22.71;43.26
56518;BME280;42419;48.760;2.322;2023-08-07T08:29:01;101441.84;;;22.74;43.32
56518;BME280;42419;48.760;2.322;2023-08-07T08:31:27;101414.47;;;22.64;43.76
56518;BME280;42419;48.760;2.322;2023-08-07T08:33:53;101417.91;;;22.68;43.76
56518;BME280;42419;48.760;2.322;2023-08-07T08:36:18;101429.03;;;22.80;43.52
56518;BME280;42419;48.760;2.322;2023-08-07T08:38:43;101409.63;;;22.74;43.49
56518;BME280;42419;48.760;2.322;2023-08-07T08:41:10;101432.41;;;22.85;43.44
56518;BME280;42419;48.760;2.322;2023-08-07T08:43:37;101428.03;;;22.83;43.72
56518;BME280;42419;48.760;2.322;2023-08-07T08:46:07;101442.16;;;22.88;43.65
56518;BME280;42419;48.760;2.322;2023-08-07T08:48:38;101425.41;;;22.81;43.34
56518;BME280;42419;48.760;2.322;2023-08-07T08:51:04;101435.66;;;22.94;43.21
56518;BME280;42419;48.760;2.322;2023-08-07T08:53:30;101421.66;;;22.85;42.91
56518;BME280;42419;48.760;2.322;2023-08-07T08:55:56;101407.25;;;22.88;43.11
56518;BME280;42419;48.760;2.322;2023-08-07T08:58:23;101417.69;;;22.96;43.21
56518;BME280;42419;48.760;2.322;2023-08-07T09:00:48;101421.25;;;22.96;43.03
56518;BME280;42419;48.760;2.322;2023-08-07T09:03:14;101406.25;;;22.91;43.11
56518;BME280;42419;48.760;2.322;2023-08-07T09:05:41;101407.13;;;22.91;43.14
56518;BME280;42419;48.760;2.322;2023-08-07T09:08:07;101411.69;;;22.89;43.45
56518;BME280;42419;48.760;2.322;2023-08-07T09:10:34;101424.72;;;22.98;43.10
56518;BME280;42419;48.760;2.322;2023-08-07T09:13:04;101424.53;;;23.03;42.92
56518;BME280;42419;48.760;2.322;2023-08-07T09:15:32;101422.81;;;23.02;43.12
56518;BME280;42419;48.760;2.322;2023-08-07T09:17:58;101420.13;;;23.02;43.14
56518;BME280;42419;48.760;2.322;2023-08-07T09:20:27;101411.28;;;22.98;42.67
56518;BME280;42419;48.760;2.322;2023-08-07T09:22:53;101451.03;;;23.12;42.95
56518;BME280;42419;48.760;2.322;2023-08-07T09:25:27;101430.69;;;23.06;42.99
56518;BME280;42419;48.760;2.322;2023-08-07T09:27:54;101448.09;;;23.18;42.96
56518;BME280;42419;48.760;2.322;2023-08-07T09:30:20;101411.97;;;23.03;42.83
56518;BME280;42419;48.760;2.322;2023-08-07T09:32:47;101418.78;;;23.12;42.62
56518;BME280;42419;48.760;2.322;2023-08-07T09:35:13;101418.69;;;23.15;42.76
56518;BME280;42419;48.760;2.322;2023-08-07T09:37:38;101437.19;;;23.22;42.52
56518;BME280;42419;48.760;2.322;2023-08-07T09:40:04;101442.63;;;23.21;42.50
56518;BME280;42419;48.760;2.322;2023-08-07T09:42:33;101376.16;;;22.82;42.42
56518;BME280;42419;48.760;2.322;2023-08-07T09:44:59;101418.00;;;23.10;42.16
56518;BME280;42419;48.760;2.322;2023-08-07T09:47:25;101446.81;;;23.28;42.07
56518;BME280;42419;48.760;2.322;2023-08-07T09:49:54;101446.09;;;23.24;42.22
56518;BME280;42419;48.760;2.322;2023-08-07T09:52:19;101446.53;;;23.34;42.00
56518;BME280;42419;48.760;2.322;2023-08-07T09:54:44;101440.13;;;23.38;42.32
56518;BME280;42419;48.760;2.322;2023-08-07T09:57:10;101427.53;;;23.39;41.73
56518;BME280;42419;48.760;2.322;2023-08-07T09:59:35;101424.84;;;23.39;41.96
56518;BME280;42419;48.760;2.322;2023-08-07T10:02:02;101427.44;;;23.42;42.05
56518;BME280;42419;48.760;2.322;2023-08-07T10:04:29;101439.50;;;23.52;42.15
56518;BME280;42419;48.760;2.322;2023-08-07T10:06:54;101378.19;;;23.19;42.09
56518;BME280;42419;48.760;2.322;2023-08-07T10:09:21;101437.78;;;23.51;42.19
56518;BME280;42419;48.760;2.322;2023-08-07T10:11:46;101436.03;;;23.50;42.29
56518;BME280;42419;48.760;2.322;2023-08-07T10:14:14;101435.88;;;23.53;41.88
56518;BME280;42419;48.760;2.322;2023-08-07T10:16:40;101422.53;;;23.51;41.86
56518;BME280;42419;48.760;2.322;2023-08-07T10:19:07;101435.00;;;23.52;41.97
56518;BME280;42419;48.760;2.322;2023-08-07T10:21:35;101420.78;;;23.50;41.33
56518;BME280;42419;48.760;2.322;2023-08-07T10:24:03;101419.03;;;23.49;41.73
56518;BME280;42419;48.760;2.322;2023-08-07T10:26:30;101425.97;;;23.55;40.87
56518;BME280;42419;48.760;2.322;2023-08-07T10:28:59;101407.25;;;23.52;41.35
56518;BME280;42419;48.760;2.322;2023-08-07T10:31:26;101401.69;;;23.56;41.22
56518;BME280;42419;48.760;2.322;2023-08-07T10:33:52;101343.16;;;23.22;41.07
56518;BME280;42419;48.760;2.322;2023-08-07T10:36:18;101415.53;;;23.67;41.26
56518;BME280;42419;48.760;2.322;2023-08-07T10:38:44;101421.84;;;23.66;40.91
56518;BME280;42419;48.760;2.322;2023-08-07T10:41:13;101422.53;;;23.71;41.32
56518;BME280;42419;48.760;2.322;2023-08-07T10:43:40;101415.53;;;23.67;40.43
56518;BME280;42419;48.760;2.322;2023-08-07T10:46:09;101419.25;;;23.65;40.79
56518;BME280;42419;48.760;2.322;2023-08-07T10:48:42;101418.44;;;23.63;40.62
56518;BME280;42419;48.760;2.322;2023-08-07T10:51:08;101416.47;;;23.66;40.27
56518;BME280;42419;48.760;2.322;2023-08-07T10:53:36;101420.72;;;23.72;40.30
56518;BME280;42419;48.760;2.322;2023-08-07T10:56:08;101408.88;;;23.76;40.45
56518;BME280;42419;48.760;2.322;2023-08-07T10:58:35;101384.06;;;23.69;40.27
56518;BME280;42419;48.760;2.322;2023-08-07T11:01:21;101405.06;;;23.82;39.88
56518;BME280;42419;48.760;2.322;2023-08-07T11:03:54;101398.75;;;23.83;39.51
56518;BME280;42419;48.760;2.322;2023-08-07T11:06:29;101395.97;;;23.84;40.09
56518;BME280;42419;48.760;2.322;2023-08-07T11:08:57;101405.47;;;23.93;40.25
56518;BME280;42419;48.760;2.322;2023-08-07T11:11:23;101400.69;;;23.99;40.34
56518;BME280;42419;48.760;2.322;2023-08-07T11:13:48;101400.53;;;24.02;40.13
56518;BME280;42419;48.760;2.322;2023-08-07T11:16:14;101403.97;;;24.06;39.94
56518;BME280;42419;48.760;2.322;2023-08-07T11:18:39;101393.88;;;24.11;39.82
56518;BME280;42419;48.760;2.322;2023-08-07T11:21:07;101378.97;;;24.04;39.70
56518;BME280;42419;48.760;2.322;2023-08-07T11:23:33;101386.47;;;24.16;39.86
56518;BME280;42419;48.760;2.322;2023-08-07T11:25:58;101387.19;;;24.20;40.32
56518;BME280;42419;48.760;2.322;2023-08-07T11:28:23;101385.22;;;24.23;40.09
56518;BME280;42419;48.760;2.322;2023-08-07T11:30:52;101378.84;;;24.26;39.79
56518;BME280;42419;48.760;2.322;2023-08-07T11:33:19;101386.03;;;24.25;39.71
56518;BME280;42419;48.760;2.322;2023-08-07T11:35:45;101377.25;;;24.22;39.90
56518;BME280;42419;48.760;2.322;2023-08-07T11:38:11;101384.38;;;24.23;40.08
56518;BME280;42419;48.760;2.322;2023-08-07T11:40:36;101384.59;;;24.18;40.44
56518;BME280;42419;48.760;2.322;2023-08-07T11:43:02;101368.19;;;24.04;39.75
56518;BME280;42419;48.760;2.322;2023-08-07T11:45:28;101356.84;;;23.97;40.08
56518;BME280;42419;48.760;2.322;2023-08-07T11:47:57;101361.22;;;24.00;39.58
56518;BME280;42419;48.760;2.322;2023-08-07T11:50:24;101368.94;;;24.07;40.13
56518;BME280;42419;48.760;2.322;2023-08-07T11:52:50;101380.09;;;24.19;39.33
56518;BME280;42419;48.760;2.322;2023-08-07T11:55:15;101376.09;;;24.27;39.32
56518;BME280;42419;48.760;2.322;2023-08-07T11:57:40;101367.03;;;24.28;39.55
56518;BME280;42419;48.760;2.322;2023-08-07T12:00:08;101377.03;;;24.26;40.00
56518;BME280;42419;48.760;2.322;2023-08-07T12:02:43;101349.16;;;24.08;40.09
56518;BME280;42419;48.760;2.322;2023-08-07T12:05:12;101354.44;;;24.10;39.80
56518;BME280;42419;48.760;2.322;2023-08-07T12:07:39;101353.94;;;24.02;39.52
56518;BME280;42419;48.760;2.322;2023-08-07T12:10:08;101362.41;;;24.13;39.52
56518;BME280;42419;48.760;2.322;2023-08-07T12:12:37;101363.69;;;24.23;38.68
56518;BME280;42419;48.760;2.322;2023-08-07T12:15:07;101356.38;;;24.27;38.96
56518;BME280;42419;48.760;2.322;2023-08-07T12:17:33;101350.56;;;24.36;38.81
56518;BME280;42419;48.760;2.322;2023-08-07T12:19:58;101349.28;;;24.43;39.41
56518;BME280;42419;48.760;2.322;2023-08-07T12:22:27;101353.56;;;24.48;39.13
56518;BME280;42419;48.760;2.322;2023-08-07T12:24:53;101346.13;;;24.53;38.54
56518;BME280;42419;48.760;2.322;2023-08-07T12:27:19;101348.59;;;24.58;39.19
56518;BME280;42419;48.760;2.322;2023-08-07T12:29:45;101337.91;;;24.56;38.97
56518;BME280;42419;48.760;2.322;2023-08-07T12:32:10;101342.03;;;24.64;38.80
56518;BME280;42419;48.760;2.322;2023-08-07T12:34:36;101331.56;;;24.57;39.05
56518;BME280;42419;48.760;2.322;2023-08-07T12:37:03;101338.53;;;24.62;38.26
56518;BME280;42419;48.760;2.322;2023-08-07T12:39:29;101331.03;;;24.68;38.76
56518;BME280;42419;48.760;2.322;2023-08-07T12:41:54;101331.78;;;24.72;38.59
56518;BME280;42419;48.760;2.322;2023-08-07T12:44:19;101327.78;;;24.62;37.94